Terminal Aerodrome Forecast
Issued by NWS

Current Version | Previous Version | Graphics & Text | Print | Product List | Glossary On
Versions: 1 2 3 4 5 6 7 8 9 10 11 12 13 14 15 16 17 18 19 20 21 22 23 24 25 26 27 28 29 30 31 32 33 34 35 36 37 38 39 40 41 42 43 44 45 46 47 48 49 50
000
FTUS41 KRNK 212054 AAA
TAFLWB
TAF AMD
KLWB 212054Z 2121/2218 29008KT P6SM VCSH SCT025 BKN035 OVC050
      TEMPO 2121/2124 -SHRA BKN025
     FM220000 29008KT P6SM -SHRA OVC017
     FM221500 32010G18KT P6SM SCT019 OVC030=

USA.gov is the U.S. government's official web portal to all federal, state and local government web resources and services.